Terminal Aerodrome Forecast
Issued by NWS Albuquerque, NM

Home | Current Version | Previous Version | Text Only | Print | Product List | Glossary On
Versions: 1 2 3 4 5 6 7 8 9 10 11 12 13 14 15
000
FTUS45 KABQ 221600 AAA
TAFABQ
TAF AMD
KABQ 221629Z 2216/2312 VRB05KT P6SM -SHRA SCT025 BKN080
      TEMPO 2216/2218 6SM -RA BR BKN020
     FM221900 19007KT P6SM SCT050 BKN090
     FM222300 19010KT P6SM VCTS SCT060CB BKN100
     FM230200 VRB05KT P6SM SCT100=

USA.gov is the U.S. government's official web portal to all federal, state and local government web resources and services.